My Meet Scores
Anika Patel, Gymkhana Gymnastics Club and Dance Studio - MyMeetScores.com
Top100 | Top Teams | Upcoming Meets | Completed Meets | Latest | Add Scores | Help| Support | Bookmark and Share

Anika Patel, Gymkhana Gymnastics Club and Dance Studio
Personal Bests
LevelVault BarsBeamFloorAA
39.0758.775 9.2259.00035.600
49.1508.875 9.2009.55036.400
69.1758.950 9.2509.47536.775
79.4508.725 9.4509.42536.375
Meet Scores
Date Meet Team Session Level Division Vault Bars Beam Floor AA
2019-04-26 Level 7/8 Region 5 Regionals Gymkhana Gymnastics Club and Dance Studio 5A 7 JRE1 9.450 11T 8.400 25T 8.900 27 9.100 26T 35.850 28
2019-03-29 Illinois Level 7 & 8 State Meet Gymkhana Gymnastics Club and Dance Studio 8 7 Sr A 9.300 6T 8.200 22 9.450 9T 9.425 10T 36.375 17
2019-02-23 Kinetic Classic 2019 Gymkhana Gymnastics Club and Dance Studio 1 7 Middle 9.175 3T 7.900 14 9.175 8 8.875 13 35.125 9
2019-02-08 Midwest Twisters Harley Meet Womens Gymkhana Gymnastics Club and Dance Studio O02 7 12 yrs. 8.325 14 8.725 8 8.325 13 9.200 7T 34.575 11
2019-01-18 CGA Coaches Spectacular Gymkhana Gymnastics Club and Dance Studio 4B 7 12B to 13A 8.850 11 7.850 13 8.500 11 8.650 16 33.850 13
2019-01-11 St Jude Benefit Meet Gymkhana Gymnastics Club and Dance Studio 4B 7 Jr B 8.750 8 8.700 11 8.100 12 9.350 10T 34.900 10
2018-03-16 2018 Illinois Level 6, 9, 10 State Championships Gymkhana Gymnastics Club and Dance Studio 09 6 Jr A 9.150 10T 8.950 9T 9.200 12 9.475 11 36.775 10
2018-02-16 Big Classic Gymkhana Gymnastics Club and Dance Studio 3A 6 Junior C 8.900 3 8.450 3 9.125 4 9.200 4T 35.675 2
2018-02-08 Hal's Harley-Davidson Invite Womens Gymkhana Gymnastics Club and Dance Studio O10 6 11 b 8.700 5 7.550 9 8.625 9 9.350 3T 34.225 9
2018-01-19 2018 Bravo Classic Gymkhana Gymnastics Club and Dance Studio 2A 6 Jr 9.175 5T 8.575 11 9.250 8 9.175 8 36.175 7
2018-01-12 St Jude Benefit Meet Gymkhana Gymnastics Club and Dance Studio 5C 6 JrB 9.125 5 8.550 8 9.000 5 8.600 16 35.275 6
2017-03-10 2017 Illinois Level 4 State Championships Gymkhana Gymnastics Club and Dance Studio 4 4 Jr A 8.450 24T 8.875 22 9.100 18 8.750 23 35.175 21T
2017-02-17 Big Classic Gymkhana Gymnastics Club and Dance Studio B 4 Child B 8.550 24T 8.750 31 9.200 12T 8.925 19 35.425 22
2017-02-02 The Big Chill Gymkhana Gymnastics Club and Dance Studio 5 4 10 Year Ol 8.525 6 8.500 7T 9.200 3 9.225 1 35.450 4
2017-01-20 80s Throwback Classic Gymkhana Gymnastics Club and Dance Studio 1 4 Sr A 7.800 11T 8.700 4 8.725 6 9.300 1 34.525 3
2017-01-07 2017 Flip'r Invitational Gymkhana Gymnastics Club and Dance Studio 4 Lvl 4: Senior 9.150 1 8.675 5 9.025 2 9.550 1 36.400 2
2016-12-02 Ultimate Wish Classic Gymkhana Gymnastics Club and Dance Studio 5 4 Jr B 8.525 13T 8.300 12T 8.850 13T 8.750 15T 34.425 11T
2016-03-10 2016 Illinois Level 4 State Meet Bartlett Gymnastics Center All 4 Youth-A 8.375 27 7.300 31 8.750 25 8.500 30 32.925 31
2016-02-20 Big Classic Bartlett Gymnastics Center 5B 4 Child B 8.350 12T 7.325 18 8.100 19 8.175 18 31.950 18
2016-02-12 IGI Chicago Style Gymnastics Meet Bartlett Gymnastics Center 621 4 JrA 7.950 18 8.100 16 8.400 19 8.550 18 33.000 18
2016-01-15 2016 Bravo Classic Bartlett Gymnastics Center 5B 4 9yrs 8.150 17 7.800 16 8.300 15 8.550 11 32.800 17
2016-01-08 St Jude Benefit Meet Bartlett Gymnastics Center 3A 4 Jr B 8.150 18 7.700 20 8.200 21 8.125 21 32.175 19
2015-12-17 2015 Hawaiian Pineapple Classic Bartlett Gymnastics Center 5A 4 Age 9 7.800 13T 7.850 14 8.925 5 7.750 15 32.325 13T
2015-03-12 2015 Illinois Level 3 State Championship Bartlett Gymnastics Center All 3 Youth-C 9.075 24 8.450 27 9.225 9 8.550 29 35.300 26
2015-02-20 Midwest Open 2015 Bartlett Gymnastics Center 4A 3 8 8.750 24 8.050 22 8.850 10 8.850 12 34.500 20
2015-02-13 IGI Chicago Style Gymnastics Meet Bartlett Gymnastics Center 213 3 8 & younge 9.000 27T 8.775 17T 8.825 16T 9.000 15T 35.600 15T
2014-03-07 Illinois Level 3 State Meet Bartlett Gymnastics Center 3 3 Child C 9.050 29 8.700 26 8.300 29 8.550 28 34.600 30
2014-02-15 BIG Dream Classic 2014 Bartlett Gymnastics Center 6A 3 Child A 8.850 11 8.350 12 7.850 12 8.450 13 33.500 12
2014-02-07 IGI Chicago Style Gymnastics Meet Bartlett Gymnastics Center 221 3 8 & Under 8.250 37T 7.200 46T 7.350 43 8.625 46 31.425 44
2013-12-19 2013 Hawaiian Pineapple Classic Bartlett Gymnastics Center A5 3 6-7 8.150 17 6.100 18 6.725 17 8.300 16 29.275 17
Get your scores on
a t-shirt, pin, or hoodie

www.lazysuits.com